To NAV CANADA Home Page Login to a new session Search on AWWS site Feedback and Comments Disclaimer Vers la page française équivalente Tips FAQ What's new on the site To the Forecasts and Observations / NOTAM section To "File a Flight Plan" website Publications and other links Update of the User's profile FIC Telephone Numbers My Weather Data Folder Route Weather Data Regional Weather Data Local Weather Data To the Forecasts and Observations / NOTAM section
Request Generated 04/24/2014 at 12:53:03 UTC . Weather information available at that time is displayed.

METAR/TAF

ROBERVAL/QC    

METAR CYRJ 241200Z 31014G21KT 25SM BKN030 01/M04 A2981 RMK SC7
SLP103=
METAR CYRJ 241100Z 31017G24KT 25SM BKN030 00/M04 A2979 RMK SC7
SLP097=
METAR CYRJ 241000Z 31014G25KT 25SM BKN035 M01/M05 A2978 RMK SC7
SLP093=

TAF CYRJ 241138Z 2412/2424 31015G25KT P6SM BKN030 TEMPO 2412/2418
P6SM -SHSN BKN020
FM241800 21015G25KT P6SM BKN040
RMK NXT FCST BY 241400Z=
Your time UTC time
Weather data provided by Environment Canada and NAV CANADA